Un Pendik — TCOD2 — position and weather

sailwx.info

Track history (hours):
 
Tides and Currents Weather Stations Pressure Air Temp Water Temp Dewpoint Dewpoint Depression Visibility Wind Speed Wind Dir Waves Ship Positions

Un Pendik

Last reported at 2014-Oct-29 23:33 UTC. Time now 2014-Oct-31 20:47 UTC.
Position N 42°43' E 006°20'.

Length 193 m; draft 6.6 m.

Type: Ship (hazmat cat A). MMSI: 271000792.

Date/timePositionNaut miles runAvg speedWind from/ knotsBaromVisibWave heightAir tempDewpointWater temp
2014-Oct-29 23:33N 42°43' E 006°20'1918.6
2014-Oct-29 22:33N 42°54' E 006°00'1313.0
2014-Oct-29 21:33N 43°06' E 005°54'0 0.0
2014-Oct-29 20:33N 43°06' E 005°54'0 0.0
2014-Oct-29 19:33N 43°06' E 005°54'0 0.0
2014-Oct-29 18:33N 43°06' E 005°54'0 0.0
2014-Oct-29 17:33N 43°06' E 005°54'0 0.0
2014-Oct-29 16:33N 43°06' E 005°54'0 0.0
2014-Oct-29 15:33N 43°06' E 005°54'0 0.0
2014-Oct-29 14:33N 43°06' E 005°54'0 0.0
2014-Oct-29 13:33N 43°06' E 005°54'0 0.0
2014-Oct-29 12:33N 43°06' E 005°54'0 0.0
2014-Oct-29 11:33N 43°06' E 005°54'0 0.0
2014-Oct-29 10:33N 43°06' E 005°54'5 5.3
2014-Oct-29 09:33N 43°03' E 005°59'1918.6
2014-Oct-29 08:33N 42°48' E 006°13'2119.7
2014-Oct-29 07:28N 42°35' E 006°37'46019.2
2014-Oct-28 07:29N 38°39' E 015°17'1919.3
2014-Oct-28 06:30N 38°26' E 015°35'40316.2
2014-Oct-27 05:33N 37°25' E 024°00'2319.5
2014-Oct-27 04:23N 37°44' E 024°17'1720.0
2014-Oct-27 03:33N 37°55' E 024°33'2120.2
2014-Oct-27 02:31N 38°14' E 024°45'23317.4
2014-Oct-26 13:06N 40°51' E 028°28'1019.0
2014-Oct-26 12:33N 40°52' E 028°41'1919.1
2014-Oct-26 11:33N 40°50' E 029°06'7 7.5
2014-Oct-26 10:33N 40°51' E 029°16'0 0.0
2014-Oct-26 09:33N 40°51' E 029°16'0 0.0
2014-Oct-26 08:33N 40°51' E 029°16'0 0.0
2014-Oct-26 07:33N 40°51' E 029°16'0 0.0
2014-Oct-26 06:33N 40°51' E 029°16'0 0.0
2014-Oct-26 05:33N 40°51' E 029°16'0 0.0
2014-Oct-26 04:34N 40°51' E 029°16'0 0.0
2014-Oct-26 03:33N 40°51' E 029°16'0 0.0
2014-Oct-26 02:33N 40°51' E 029°16'0 0.0
2014-Oct-26 01:33N 40°51' E 029°16'0 0.1
2014-Oct-26 00:33N 40°51' E 029°16'1514.8
2014-Oct-25 23:33N 40°49' E 028°57'28017.3
2014-Oct-25 07:21N 37°41' E 024°30'1620.0
2014-Oct-25 06:32N 37°27' E 024°18'39918.1
2014-Oct-24 08:33N 37°50' E 015°56'2317.4
2014-Oct-24 07:14N 38°06' E 015°35'1315.9
2014-Oct-24 06:24N 38°18' E 015°40'52019.4
2014-Oct-23 03:31N 42°56' E 005°60'1212.3
2014-Oct-23 02:33N 43°06' E 005°54'0 0.0
2014-Oct-23 01:33N 43°06' E 005°54'0 0.0
2014-Oct-23 00:33N 43°06' E 005°54'0 0.0
2014-Oct-22 23:34N 43°06' E 005°54'0 0.0
2014-Oct-22 22:33N 43°06' E 005°54'0 0.0
2014-Oct-22 21:33N 43°06' E 005°54'0 0.0
2014-Oct-22 20:33N 43°06' E 005°54'0 0.0
2014-Oct-22 19:33N 43°06' E 005°54'0 0.0
2014-Oct-22 18:33N 43°06' E 005°54'0 0.0
2014-Oct-22 17:33N 43°06' E 005°54'0 0.0
2014-Oct-22 16:33N 43°06' E 005°54'0 0.0
2014-Oct-22 15:33N 43°06' E 005°54'0 0.0
2014-Oct-22 14:33N 43°06' E 005°54'0 0.0
2014-Oct-22 13:33N 43°06' E 005°54'0 0.2
2014-Oct-22 12:33N 43°06' E 005°54'6 6.4
2014-Oct-22 11:33N 43°02' E 006°01'5 4.8
2014-Oct-22 10:33N 42°59' E 006°06'29 9.6
2014-Oct-22 07:34N 42°54' E 006°44'  
Track history (hours):
 
Tides and Currents Weather Stations Pressure Air Temp Water Temp Dewpoint Dewpoint Depression Visibility Wind Speed Wind Dir Waves Ship Positions

Un Pendik

Last reported at 2014-Oct-29 23:33 UTC. Time now 2014-Oct-31 20:47 UTC.
Position N 42°43' E 006°20'.

Length 193 m; draft 6.6 m.

Type: Ship (hazmat cat A). MMSI: 271000792.

Date/timePositionNaut miles runAvg speedWind from/ knotsBaromVisibWave heightAir tempDewpointWater temp
2014-Oct-29 23:33N 42°43' E 006°20'1918.6
2014-Oct-29 22:33N 42°54' E 006°00'1313.0
2014-Oct-29 21:33N 43°06' E 005°54'0 0.0
2014-Oct-29 20:33N 43°06' E 005°54'0 0.0
2014-Oct-29 19:33N 43°06' E 005°54'0 0.0
2014-Oct-29 18:33N 43°06' E 005°54'0 0.0
2014-Oct-29 17:33N 43°06' E 005°54'0 0.0
2014-Oct-29 16:33N 43°06' E 005°54'0 0.0
2014-Oct-29 15:33N 43°06' E 005°54'0 0.0
2014-Oct-29 14:33N 43°06' E 005°54'0 0.0
2014-Oct-29 13:33N 43°06' E 005°54'0 0.0
2014-Oct-29 12:33N 43°06' E 005°54'0 0.0
2014-Oct-29 11:33N 43°06' E 005°54'0 0.0
2014-Oct-29 10:33N 43°06' E 005°54'5 5.3
2014-Oct-29 09:33N 43°03' E 005°59'1918.6
2014-Oct-29 08:33N 42°48' E 006°13'2119.7
2014-Oct-29 07:28N 42°35' E 006°37'46019.2
2014-Oct-28 07:29N 38°39' E 015°17'1919.3
2014-Oct-28 06:30N 38°26' E 015°35'40316.2
2014-Oct-27 05:33N 37°25' E 024°00'2319.5
2014-Oct-27 04:23N 37°44' E 024°17'1720.0
2014-Oct-27 03:33N 37°55' E 024°33'2120.2
2014-Oct-27 02:31N 38°14' E 024°45'23317.4
2014-Oct-26 13:06N 40°51' E 028°28'1019.0
2014-Oct-26 12:33N 40°52' E 028°41'1919.1
2014-Oct-26 11:33N 40°50' E 029°06'7 7.5
2014-Oct-26 10:33N 40°51' E 029°16'0 0.0
2014-Oct-26 09:33N 40°51' E 029°16'0 0.0
2014-Oct-26 08:33N 40°51' E 029°16'0 0.0
2014-Oct-26 07:33N 40°51' E 029°16'0 0.0
2014-Oct-26 06:33N 40°51' E 029°16'0 0.0
2014-Oct-26 05:33N 40°51' E 029°16'0 0.0
2014-Oct-26 04:34N 40°51' E 029°16'0 0.0
2014-Oct-26 03:33N 40°51' E 029°16'0 0.0
2014-Oct-26 02:33N 40°51' E 029°16'0 0.0
2014-Oct-26 01:33N 40°51' E 029°16'0 0.1
2014-Oct-26 00:33N 40°51' E 029°16'1514.8
2014-Oct-25 23:33N 40°49' E 028°57'28017.3
2014-Oct-25 07:21N 37°41' E 024°30'1620.0
2014-Oct-25 06:32N 37°27' E 024°18'39918.1
2014-Oct-24 08:33N 37°50' E 015°56'2317.4
2014-Oct-24 07:14N 38°06' E 015°35'1315.9
2014-Oct-24 06:24N 38°18' E 015°40'52019.4
2014-Oct-23 03:31N 42°56' E 005°60'1212.3
2014-Oct-23 02:33N 43°06' E 005°54'0 0.0
2014-Oct-23 01:33N 43°06' E 005°54'0 0.0
2014-Oct-23 00:33N 43°06' E 005°54'0 0.0
2014-Oct-22 23:34N 43°06' E 005°54'0 0.0
2014-Oct-22 22:33N 43°06' E 005°54'0 0.0
2014-Oct-22 21:33N 43°06' E 005°54'0 0.0
2014-Oct-22 20:33N 43°06' E 005°54'0 0.0
2014-Oct-22 19:33N 43°06' E 005°54'0 0.0
2014-Oct-22 18:33N 43°06' E 005°54'0 0.0
2014-Oct-22 17:33N 43°06' E 005°54'0 0.0
2014-Oct-22 16:33N 43°06' E 005°54'0 0.0
2014-Oct-22 15:33N 43°06' E 005°54'0 0.0
2014-Oct-22 14:33N 43°06' E 005°54'0 0.0
2014-Oct-22 13:33N 43°06' E 005°54'0 0.2
2014-Oct-22 12:33N 43°06' E 005°54'6 6.4
2014-Oct-22 11:33N 43°02' E 006°01'5 4.8
2014-Oct-22 10:33N 42°59' E 006°06'29 9.6
2014-Oct-22 07:34N 42°54' E 006°44'  

Dump ship's entire track history